createdAt,value
2023-02-14T00:02:14.830Z,96450.06
2023-02-14T00:04:41.175Z,96449.38
2023-02-14T00:07:07.587Z,96445.69
2023-02-14T00:09:33.849Z,96434.34
2023-02-14T00:12:00.138Z,96442.72
2023-02-14T00:14:26.401Z,96446.16
2023-02-14T00:16:52.662Z,96444.38
2023-02-14T00:19:18.932Z,96438.53
2023-02-14T00:21:45.187Z,96442.59
2023-02-14T00:24:11.449Z,96446.16
2023-02-14T00:26:37.722Z,96445.47
2023-02-14T00:29:03.989Z,96434.13
2023-02-14T00:31:30.350Z,96439.28
2023-02-14T00:33:56.637Z,96441.00
2023-02-14T00:36:22.890Z,96439.72
2023-02-14T00:38:49.154Z,96444.63
2023-02-14T00:41:15.415Z,96436.81
2023-02-14T00:43:41.669Z,96437.38
2023-02-14T00:46:07.949Z,96430.09
2023-02-14T00:48:34.343Z,96430.09
2023-02-14T00:51:00.872Z,96430.72
2023-02-14T00:53:27.244Z,96431.81
2023-02-14T00:55:53.689Z,96431.22
2023-02-14T00:58:19.940Z,96432.66
2023-02-14T01:00:46.249Z,96422.59
2023-02-14T01:03:12.514Z,96428.72
2023-02-14T01:05:38.782Z,96430.09
2023-02-14T01:08:05.054Z,96423.41
2023-02-14T01:10:31.308Z,96423.03
2023-02-14T01:12:57.589Z,96420.81
2023-02-14T01:15:23.845Z,96425.16
2023-02-14T01:17:50.120Z,96425.72
2023-02-14T01:20:16.374Z,96423.66
2023-02-14T01:22:42.646Z,96427.91
2023-02-14T01:25:08.986Z,96428.50
2023-02-14T01:27:35.299Z,96437.03
2023-02-14T01:30:01.627Z,96432.69
2023-02-14T01:32:27.929Z,96430.00
2023-02-14T01:34:54.201Z,96430.69
2023-02-14T01:37:20.486Z,96431.31
2023-02-14T01:39:46.760Z,96428.56
2023-02-14T01:42:13.025Z,96422.34
2023-02-14T01:44:39.295Z,96422.16
2023-02-14T01:47:05.554Z,96421.31
2023-02-14T01:49:31.811Z,96421.50
2023-02-14T01:51:58.198Z,96413.97
2023-02-14T01:54:24.496Z,96426.72
2023-02-14T01:56:50.783Z,96427.06
2023-02-14T01:59:17.041Z,96420.53
2023-02-14T02:01:43.439Z,96421.34
2023-02-14T02:04:09.785Z,96420.44
2023-02-14T02:06:36.047Z,96418.00
2023-02-14T02:09:02.312Z,96422.72
2023-02-14T02:11:28.587Z,96420.03
2023-02-14T02:13:54.832Z,96424.31
2023-02-14T02:16:21.136Z,96419.56
2023-02-14T02:18:47.426Z,96423.94
2023-02-14T02:21:13.695Z,96413.97
2023-02-14T02:23:39.945Z,96414.78
2023-02-14T02:26:06.199Z,96407.09
2023-02-14T02:28:32.453Z,96410.13
2023-02-14T02:30:59.164Z,96408.25
2023-02-14T02:33:25.674Z,96399.53
2023-02-14T02:35:51.962Z,96405.06
2023-02-14T02:38:18.222Z,96396.41
2023-02-14T02:40:44.467Z,96398.09
2023-02-14T02:43:10.718Z,96396.19
2023-02-14T02:45:36.966Z,96385.28
2023-02-14T02:48:03.335Z,96395.00
2023-02-14T02:50:29.588Z,96388.72
2023-02-14T02:52:55.830Z,96393.59
2023-02-14T02:55:22.077Z,96389.06
2023-02-14T02:57:48.327Z,96384.06
2023-02-14T03:00:14.576Z,96388.00
2023-02-14T03:02:40.866Z,96390.31
2023-02-14T03:05:07.200Z,96391.75
2023-02-14T03:07:33.476Z,96387.03
2023-02-14T03:09:59.734Z,96386.56
2023-02-14T03:12:25.996Z,96389.34
2023-02-14T03:14:52.316Z,96384.19
2023-02-14T03:17:18.591Z,96380.34
2023-02-14T03:19:44.841Z,96386.38
2023-02-14T03:22:11.117Z,96386.47
2023-02-14T03:24:37.382Z,96383.31
2023-02-14T03:27:03.659Z,96375.59
2023-02-14T03:29:29.912Z,96376.09
2023-02-14T03:31:56.307Z,96374.31
2023-02-14T03:34:22.620Z,96366.97
2023-02-14T03:36:48.889Z,96376.28
2023-02-14T03:39:15.159Z,96377.28
2023-02-14T03:41:41.423Z,96372.34
2023-02-14T03:44:07.681Z,96374.19
2023-02-14T03:46:33.996Z,96371.84
2023-02-14T03:49:00.298Z,96374.28
2023-02-14T03:51:26.562Z,96376.19
2023-02-14T03:53:52.970Z,96376.50
2023-02-14T03:56:19.235Z,96380.34
2023-02-14T03:58:45.521Z,96372.53
2023-02-14T04:01:11.796Z,96379.59
2023-02-14T04:03:38.113Z,96384.88
2023-02-14T04:06:04.410Z,96386.63
2023-02-14T04:08:30.689Z,96385.97
2023-02-14T04:10:57.172Z,96385.72
2023-02-14T04:13:23.597Z,96380.84
2023-02-14T04:15:49.992Z,96388.09
2023-02-14T04:18:16.294Z,96387.09
2023-02-14T04:20:42.561Z,96383.81
2023-02-14T04:23:08.838Z,96375.09
2023-02-14T04:25:35.114Z,96380.31
2023-02-14T04:28:01.367Z,96374.94
2023-02-14T04:30:27.769Z,96374.69
2023-02-14T04:32:54.117Z,96374.41
2023-02-14T04:35:20.379Z,96373.66
2023-02-14T04:37:46.663Z,96378.25
2023-02-14T04:40:12.965Z,96376.28
2023-02-14T04:42:39.237Z,96370.47
2023-02-14T04:45:05.517Z,96373.16
2023-02-14T04:47:31.784Z,96370.25
2023-02-14T04:49:58.046Z,96370.88
2023-02-14T04:52:24.324Z,96374.22
2023-02-14T04:54:50.581Z,96367.72
2023-02-14T04:57:16.841Z,96366.81
2023-02-14T04:59:43.102Z,96358.41
2023-02-14T05:02:09.402Z,96364.63
2023-02-14T05:04:35.735Z,96365.59
2023-02-14T05:07:01.988Z,96362.13
2023-02-14T05:09:28.342Z,96367.72
2023-02-14T05:11:54.590Z,96372.44
2023-02-14T05:14:21.084Z,96363.38
2023-02-14T05:16:47.420Z,96368.75
2023-02-14T05:19:14.250Z,96367.94
2023-02-14T05:21:40.544Z,96373.78
2023-02-14T05:24:06.799Z,96364.94
2023-02-14T05:26:33.067Z,96367.22
2023-02-14T05:28:59.333Z,96370.34
2023-02-14T05:31:25.664Z,96364.94
2023-02-14T05:33:52.008Z,96367.13
2023-02-14T05:36:18.265Z,96374.63
2023-02-14T05:38:44.539Z,96371.16
2023-02-14T05:41:10.817Z,96369.44
2023-02-14T05:43:37.091Z,96367.31
2023-02-14T05:46:03.386Z,96367.97
2023-02-14T05:48:29.659Z,96370.06
2023-02-14T05:50:55.918Z,96368.38
2023-02-14T05:53:22.190Z,96366.50
2023-02-14T05:55:48.450Z,96367.75
2023-02-14T05:58:14.721Z,96371.31
2023-02-14T06:00:41.462Z,96371.00
2023-02-14T06:03:07.892Z,96370.16
2023-02-14T06:05:34.152Z,96365.06
2023-02-14T06:08:00.450Z,96364.22
2023-02-14T06:10:26.724Z,96372.59
2023-02-14T06:12:53.024Z,96380.56
2023-02-14T06:15:19.281Z,96372.16
2023-02-14T06:17:45.535Z,96370.16
2023-02-14T06:20:11.807Z,96372.75
2023-02-14T06:22:38.070Z,96366.50
2023-02-14T06:25:04.341Z,96369.09
2023-02-14T06:27:30.627Z,96375.13
2023-02-14T06:29:56.964Z,96372.84
2023-02-14T06:32:23.232Z,96375.22
2023-02-14T06:34:49.505Z,96379.13
2023-02-14T06:37:15.782Z,96374.53
2023-02-14T06:39:42.044Z,96371.81
2023-02-14T06:42:08.308Z,96375.22
2023-02-14T06:44:34.591Z,96377.56
2023-02-14T06:47:00.877Z,96380.63
2023-02-14T06:49:27.160Z,96381.75
2023-02-14T06:51:53.418Z,96380.66
2023-02-14T06:54:19.691Z,96380.16
2023-02-14T06:56:45.960Z,96369.91
2023-02-14T06:59:12.219Z,96378.75
2023-02-14T07:01:38.512Z,96375.00
2023-02-14T07:04:04.797Z,96377.56
2023-02-14T07:06:31.106Z,96373.06
2023-02-14T07:08:57.357Z,96378.34
2023-02-14T07:11:23.635Z,96377.59
2023-02-14T07:13:49.892Z,96379.75
2023-02-14T07:16:16.245Z,96379.28
2023-02-14T07:18:42.508Z,96376.53
2023-02-14T07:21:08.784Z,96370.88
2023-02-14T07:23:35.058Z,96376.66
2023-02-14T07:26:01.312Z,96371.06
2023-02-14T07:28:27.589Z,96379.66
2023-02-14T07:30:53.960Z,96382.72
2023-02-14T07:33:20.297Z,96389.78
2023-02-14T07:35:46.570Z,96380.22
2023-02-14T07:38:12.837Z,96381.16
2023-02-14T07:40:39.097Z,96393.84
2023-02-14T07:43:05.361Z,96384.25
2023-02-14T07:45:31.635Z,96387.41
2023-02-14T07:47:57.917Z,96387.75
2023-02-14T07:50:24.193Z,96396.28
2023-02-14T07:52:50.469Z,96388.31
2023-02-14T07:55:16.723Z,96385.47
2023-02-14T07:57:42.965Z,96388.41
2023-02-14T08:00:09.238Z,96387.59
2023-02-14T08:02:35.495Z,96391.19
2023-02-14T08:05:01.816Z,96389.66
2023-02-14T08:07:28.150Z,96387.75
2023-02-14T08:09:54.420Z,96388.22
2023-02-14T08:12:20.674Z,96393.94
2023-02-14T08:14:46.936Z,96388.41
2023-02-14T08:17:13.207Z,96380.03
2023-02-14T08:19:39.464Z,96384.06
2023-02-14T08:22:05.879Z,96386.25
2023-02-14T08:24:32.254Z,96378.13
2023-02-14T08:26:58.532Z,96385.91
2023-02-14T08:29:24.797Z,96381.03
2023-02-14T08:31:51.129Z,96386.88
2023-02-14T08:34:17.451Z,96390.75
2023-02-14T08:36:43.701Z,96384.75
2023-02-14T08:39:09.947Z,96386.94
2023-02-14T08:41:36.218Z,96386.88
2023-02-14T08:44:02.477Z,96389.25
2023-02-14T08:46:28.763Z,96385.09
2023-02-14T08:48:55.039Z,96392.38
2023-02-14T08:51:21.294Z,96389.59
2023-02-14T08:53:47.562Z,96384.91
2023-02-14T08:56:13.836Z,96392.28
2023-02-14T08:58:40.232Z,96377.13
2023-02-14T09:01:06.549Z,96386.75
2023-02-14T09:03:32.980Z,96388.25
2023-02-14T09:05:59.282Z,96378.03
2023-02-14T09:08:25.560Z,96388.84
2023-02-14T09:10:51.874Z,96395.94
2023-02-14T09:13:18.121Z,96389.50
2023-02-14T09:15:44.374Z,96389.41
2023-02-14T09:18:10.682Z,96389.81
2023-02-14T09:20:36.942Z,96379.59
2023-02-14T09:23:03.194Z,96385.69
2023-02-14T09:25:29.442Z,96384.50
2023-02-14T09:27:55.729Z,96385.75
2023-02-14T09:30:22.095Z,96388.69
2023-02-14T09:32:48.409Z,96389.91
2023-02-14T09:35:14.680Z,96383.53
2023-02-14T09:37:40.928Z,96384.00
2023-02-14T09:40:07.174Z,96378.47
2023-02-14T09:42:33.423Z,96375.22
2023-02-14T09:44:59.687Z,96381.72
2023-02-14T09:47:26.115Z,96375.13
2023-02-14T09:49:52.414Z,96373.59
2023-02-14T09:52:18.742Z,96374.50
2023-02-14T09:54:45.037Z,96366.88
2023-02-14T09:57:11.326Z,96361.41
2023-02-14T09:59:37.582Z,96374.03
2023-02-14T10:02:03.856Z,96364.19
2023-02-14T10:04:30.112Z,96372.84
2023-02-14T10:06:56.360Z,96369.66
2023-02-14T10:09:22.609Z,96363.00
2023-02-14T10:11:48.883Z,96367.63
2023-02-14T10:14:15.137Z,96365.91
2023-02-14T10:16:41.523Z,96361.94
2023-02-14T10:19:07.828Z,96359.88
2023-02-14T10:21:34.090Z,96349.91
2023-02-14T10:24:00.358Z,96352.34
2023-02-14T10:26:26.610Z,96355.84
2023-02-14T10:28:52.872Z,96355.72
2023-02-14T10:31:19.295Z,96353.09
2023-02-14T10:33:45.629Z,96351.97
2023-02-14T10:36:11.883Z,96347.19
2023-02-14T10:38:38.129Z,96345.66
2023-02-14T10:41:04.383Z,96341.19
2023-02-14T10:43:30.664Z,96338.97
2023-02-14T10:45:57.055Z,96339.03
2023-02-14T10:48:23.338Z,96331.63
2023-02-14T10:50:49.608Z,96327.25
2023-02-14T10:53:15.879Z,96334.91
2023-02-14T10:55:42.129Z,96333.13
2023-02-14T10:58:08.381Z,96321.44
2023-02-14T11:00:34.653Z,96321.44
2023-02-14T11:03:01.029Z,96318.97
2023-02-14T11:05:27.301Z,96321.47
2023-02-14T11:07:53.578Z,96318.94
2023-02-14T11:10:20.009Z,96310.09
2023-02-14T11:12:46.303Z,96310.09
2023-02-14T11:15:12.557Z,96305.41
2023-02-14T11:17:38.814Z,96299.94
2023-02-14T11:20:05.073Z,96301.41
2023-02-14T11:22:31.449Z,96289.63
2023-02-14T11:24:57.715Z,96289.94
2023-02-14T11:27:23.965Z,96290.03
2023-02-14T11:29:50.276Z,96283.88
2023-02-14T11:32:16.553Z,96288.44
2023-02-14T11:34:42.841Z,96279.78
2023-02-14T11:37:09.095Z,96279.19
2023-02-14T11:39:35.372Z,96264.03
2023-02-14T11:42:01.646Z,96262.97
2023-02-14T11:44:27.900Z,96270.19
2023-02-14T11:46:54.512Z,96258.34
2023-02-14T11:49:20.794Z,96257.16
2023-02-14T11:51:47.066Z,96252.66
2023-02-14T11:54:13.520Z,96255.13
2023-02-14T11:56:39.799Z,96249.38
2023-02-14T11:59:06.066Z,96244.81
2023-02-14T12:01:32.330Z,96241.88
2023-02-14T12:03:58.638Z,96238.09
2023-02-14T12:06:24.897Z,96239.81
2023-02-14T12:08:51.150Z,96228.38
2023-02-14T12:11:17.402Z,96231.50
2023-02-14T12:13:43.656Z,96230.41
2023-02-14T12:16:09.946Z,96229.59
2023-02-14T12:18:36.212Z,96221.97
2023-02-14T12:21:02.877Z,96214.63
2023-02-14T12:23:29.302Z,96216.25
2023-02-14T12:25:55.553Z,96209.03
2023-02-14T12:28:21.832Z,96207.22
2023-02-14T12:30:48.187Z,96204.25
2023-02-14T12:33:14.534Z,96196.75
2023-02-14T12:35:40.795Z,96200.78
2023-02-14T12:38:07.043Z,96182.34
2023-02-14T12:40:33.310Z,96185.22
2023-02-14T12:42:59.579Z,96183.81
2023-02-14T12:45:25.845Z,96185.63
2023-02-14T12:47:52.116Z,96176.69
2023-02-14T12:50:18.391Z,96171.13
2023-02-14T12:52:44.657Z,96164.94
2023-02-14T12:55:10.913Z,96166.00
2023-02-14T12:57:37.162Z,96161.00
2023-02-14T13:00:03.443Z,96158.84
2023-02-14T13:02:29.775Z,96157.25
2023-02-14T13:04:56.135Z,96148.28
2023-02-14T13:07:22.392Z,96151.91
2023-02-14T13:09:48.646Z,96139.50
2023-02-14T13:12:15.056Z,96135.81
2023-02-14T13:14:41.356Z,96131.41
2023-02-14T13:17:07.628Z,96120.66
2023-02-14T13:19:33.876Z,96112.28
2023-02-14T13:22:00.142Z,96112.31
2023-02-14T13:24:26.427Z,96112.03
2023-02-14T13:26:52.694Z,96105.56
2023-02-14T13:29:18.956Z,96107.13
2023-02-14T13:31:45.251Z,96108.09
2023-02-14T13:34:11.533Z,96106.59
2023-02-14T13:36:37.787Z,96099.69
2023-02-14T13:39:04.065Z,96100.09
2023-02-14T13:41:30.452Z,96100.38
2023-02-14T13:43:56.729Z,96100.50
2023-02-14T13:46:23.123Z,96100.03
2023-02-14T13:48:49.408Z,96098.34
2023-02-14T13:51:15.676Z,96101.50
2023-02-14T13:53:41.948Z,96099.56
2023-02-14T13:56:08.222Z,96100.53
2023-02-14T13:58:34.473Z,96092.53
2023-02-14T14:01:00.830Z,96094.31
2023-02-14T14:03:27.237Z,96096.38
2023-02-14T14:05:53.943Z,96096.94
2023-02-14T14:08:20.219Z,96091.09
2023-02-14T14:10:46.508Z,96086.78
2023-02-14T14:13:12.802Z,96085.97
2023-02-14T14:15:39.058Z,96087.84
2023-02-14T14:18:05.344Z,96093.22
2023-02-14T14:20:31.603Z,96094.72
2023-02-14T14:22:57.850Z,96086.41
2023-02-14T14:25:24.110Z,96077.91
2023-02-14T14:27:50.382Z,96085.56
2023-02-14T14:30:16.707Z,96076.25
2023-02-14T14:32:43.061Z,96075.41
2023-02-14T14:35:09.329Z,96077.41
2023-02-14T14:37:35.613Z,96072.19
2023-02-14T14:40:01.889Z,96076.91
2023-02-14T14:42:28.164Z,96071.09
2023-02-14T14:44:54.415Z,96074.38
2023-02-14T14:47:20.705Z,96078.94
2023-02-14T14:49:46.962Z,96082.50
2023-02-14T14:52:13.234Z,96079.50
2023-02-14T14:54:39.515Z,96078.66
2023-02-14T14:57:05.770Z,96083.50
2023-02-14T14:59:32.029Z,96074.69
2023-02-14T15:01:58.301Z,96065.59
2023-02-14T15:04:24.642Z,96071.19
2023-02-14T15:06:51.002Z,96074.38
2023-02-14T15:09:17.272Z,96066.28
2023-02-14T15:11:43.536Z,96059.47
2023-02-14T15:14:09.803Z,96063.63
2023-02-14T15:16:36.230Z,96057.72
2023-02-14T15:19:02.523Z,96064.72
2023-02-14T15:21:28.797Z,96060.78
2023-02-14T15:23:55.070Z,96058.41
2023-02-14T15:26:21.359Z,96055.28
2023-02-14T15:28:47.636Z,96061.59
2023-02-14T15:31:14.020Z,96050.91
2023-02-14T15:33:40.310Z,96052.47
2023-02-14T15:36:06.662Z,96049.56
2023-02-14T15:38:32.920Z,96054.38
2023-02-14T15:40:59.437Z,96047.50
2023-02-14T15:43:25.866Z,96050.81
2023-02-14T15:45:52.177Z,96054.22
2023-02-14T15:48:18.440Z,96054.53
2023-02-14T15:50:44.691Z,96048.66
2023-02-14T15:53:10.961Z,96042.31
2023-02-14T15:55:37.243Z,96052.69
2023-02-14T15:58:03.529Z,96042.16
2023-02-14T16:00:29.784Z,96038.91
2023-02-14T16:02:56.053Z,96049.16
2023-02-14T16:05:22.328Z,96044.78
2023-02-14T16:07:48.582Z,96045.59
2023-02-14T16:10:14.835Z,96049.50
2023-02-14T16:12:41.198Z,96045.97
2023-02-14T16:15:07.464Z,96043.78
2023-02-14T16:17:33.721Z,96041.88
2023-02-14T16:19:59.989Z,96047.19
2023-02-14T16:22:26.259Z,96050.91
2023-02-14T16:24:52.553Z,96044.28
2023-02-14T16:27:18.801Z,96042.94
2023-02-14T16:29:45.068Z,96044.47
2023-02-14T16:32:15.983Z,96049.53
2023-02-14T16:34:42.983Z,96048.06
2023-02-14T16:37:09.342Z,96041.34
2023-02-14T16:39:35.602Z,96041.09
2023-02-14T16:42:01.876Z,96049.88
2023-02-14T16:44:28.134Z,96042.31
2023-02-14T16:46:54.407Z,96045.34
2023-02-14T16:49:20.671Z,96047.56
2023-02-14T16:51:46.941Z,96048.91
2023-02-14T16:54:13.218Z,96047.25
2023-02-14T16:56:39.489Z,96049.50
2023-02-14T16:59:05.767Z,96049.34
2023-02-14T17:01:32.103Z,96049.06
2023-02-14T17:03:58.465Z,96053.50
2023-02-14T17:06:24.739Z,96048.91
2023-02-14T17:08:51.010Z,96051.50
2023-02-14T17:11:17.469Z,96049.28
2023-02-14T17:13:43.770Z,96046.75
2023-02-14T17:16:10.051Z,96040.81
2023-02-14T17:18:36.329Z,96044.13
2023-02-14T17:21:02.874Z,96046.00
2023-02-14T17:23:29.314Z,96039.44
2023-02-14T17:25:55.596Z,96048.63
2023-02-14T17:28:21.865Z,96041.75
2023-02-14T17:30:48.128Z,96043.16
2023-02-14T17:33:14.384Z,96041.97
2023-02-14T17:35:40.658Z,96036.31
2023-02-14T17:38:06.942Z,96037.97
2023-02-14T17:40:33.217Z,96037.78
2023-02-14T17:42:59.471Z,96039.25
2023-02-14T17:45:25.742Z,96042.88
2023-02-14T17:47:52.024Z,96040.81
2023-02-14T17:50:18.297Z,96042.09
2023-02-14T17:52:44.555Z,96039.94
2023-02-14T17:55:10.818Z,96040.44
2023-02-14T17:57:37.098Z,96045.22
2023-02-14T18:00:03.655Z,96042.75
2023-02-14T18:02:29.983Z,96043.16
2023-02-14T18:04:56.275Z,96046.94
2023-02-14T18:07:22.541Z,96047.44
2023-02-14T18:09:48.815Z,96041.16
2023-02-14T18:12:15.328Z,96041.84
2023-02-14T18:14:41.612Z,96038.75
2023-02-14T18:17:07.877Z,96038.81
2023-02-14T18:19:34.134Z,96037.13
2023-02-14T18:22:00.389Z,96035.13
2023-02-14T18:24:26.674Z,96035.88
2023-02-14T18:26:53.014Z,96040.75
2023-02-14T18:29:19.278Z,96038.03
2023-02-14T18:31:45.620Z,96047.28
2023-02-14T18:34:11.921Z,96040.25
2023-02-14T18:36:38.224Z,96029.56
2023-02-14T18:39:04.500Z,96033.63
2023-02-14T18:41:30.773Z,96029.56
2023-02-14T18:43:57.041Z,96027.66
2023-02-14T18:46:23.316Z,96028.25
2023-02-14T18:48:49.571Z,96028.13
2023-02-14T18:51:15.829Z,96024.59
2023-02-14T18:53:42.085Z,96030.53
2023-02-14T18:56:08.353Z,96020.66
2023-02-14T18:58:34.610Z,96022.06
2023-02-14T19:01:01.200Z,96016.63
2023-02-14T19:03:27.594Z,96014.94
2023-02-14T19:05:53.847Z,96023.25
2023-02-14T19:08:20.098Z,96016.72
2023-02-14T19:10:46.376Z,96022.91
2023-02-14T19:13:12.623Z,96022.44
2023-02-14T19:15:38.869Z,96017.56
2023-02-14T19:18:05.136Z,96011.75
2023-02-14T19:20:31.410Z,96007.25
2023-02-14T19:22:57.694Z,96008.88
2023-02-14T19:25:23.973Z,96024.69
2023-02-14T19:27:50.567Z,96020.41
2023-02-14T19:30:16.894Z,96019.78
2023-02-14T19:32:43.162Z,96013.16
2023-02-14T19:35:09.420Z,96010.91
2023-02-14T19:37:35.693Z,96014.09
2023-02-14T19:40:01.977Z,96008.63
2023-02-14T19:42:28.249Z,96019.91
2023-02-14T19:44:54.505Z,96011.50
2023-02-14T19:47:31.282Z,96012.91
2023-02-14T19:50:06.010Z,96012.19
2023-02-14T19:52:32.260Z,96007.69
2023-02-14T19:54:58.546Z,96011.94
2023-02-14T19:57:24.798Z,96009.66
2023-02-14T19:59:51.047Z,96013.03
2023-02-14T20:02:17.336Z,96016.09
2023-02-14T20:04:43.590Z,96011.88
2023-02-14T20:07:09.868Z,96011.50
2023-02-14T20:09:36.146Z,96017.44
2023-02-14T20:12:02.417Z,96012.19
2023-02-14T20:14:28.683Z,96016.84
2023-02-14T20:16:55.013Z,96017.28
2023-02-14T20:19:21.320Z,96014.28
2023-02-14T20:21:47.591Z,96013.06
2023-02-14T20:24:13.862Z,96013.91
2023-02-14T20:26:40.145Z,96012.59
2023-02-14T20:29:06.417Z,96006.06
2023-02-14T20:31:32.852Z,96009.66
2023-02-14T20:33:59.188Z,96013.28
2023-02-14T20:36:25.495Z,96004.47
2023-02-14T20:38:51.744Z,96012.09
2023-02-14T20:41:18.024Z,96014.59
2023-02-14T20:43:44.305Z,96015.75
2023-02-14T20:46:10.595Z,96015.06
2023-02-14T20:48:36.904Z,96010.19
2023-02-14T20:51:03.241Z,96012.09
2023-02-14T20:53:29.705Z,96009.75
2023-02-14T20:55:55.974Z,96016.44
2023-02-14T20:58:22.252Z,96009.97
2023-02-14T21:00:48.522Z,96015.19
2023-02-14T21:03:14.786Z,96017.59
2023-02-14T21:05:41.050Z,96005.97
2023-02-14T21:08:07.325Z,96019.06
2023-02-14T21:10:33.665Z,96010.47
2023-02-14T21:12:59.949Z,96011.88
2023-02-14T21:15:26.243Z,96002.84
2023-02-14T21:17:52.537Z,96007.47
2023-02-14T21:20:18.806Z,96000.91
2023-02-14T21:22:45.089Z,96000.22
2023-02-14T21:25:11.334Z,96009.38
2023-02-14T21:27:37.584Z,96009.28
2023-02-14T21:30:03.902Z,96005.09
2023-02-14T21:32:30.186Z,96007.06
2023-02-14T21:34:56.428Z,96002.31
2023-02-14T21:37:22.694Z,95997.09
2023-02-14T21:39:48.960Z,95998.00
2023-02-14T21:42:15.228Z,95995.94
2023-02-14T21:44:41.507Z,95999.31
2023-02-14T21:47:07.770Z,95998.56
2023-02-14T21:49:35.078Z,95996.47
2023-02-14T21:52:01.327Z,95993.19
2023-02-14T21:54:27.590Z,95991.31
2023-02-14T21:56:53.850Z,95989.88
2023-02-14T21:59:20.132Z,95987.03
2023-02-14T22:01:46.391Z,95996.22
2023-02-14T22:04:12.676Z,95984.94
2023-02-14T22:06:38.947Z,95983.53
2023-02-14T22:09:05.228Z,95983.91
2023-02-14T22:11:31.493Z,95984.03
2023-02-14T22:13:57.787Z,95976.94
2023-02-14T22:16:24.061Z,95985.03
2023-02-14T22:18:50.378Z,95979.41
2023-02-14T22:21:16.665Z,95975.38
2023-02-14T22:23:42.925Z,95969.03
2023-02-14T22:26:09.194Z,95976.84
2023-02-14T22:28:35.454Z,95971.63
2023-02-14T22:31:02.107Z,95963.38
2023-02-14T22:33:28.613Z,95964.75
2023-02-14T22:35:54.858Z,95959.53
2023-02-14T22:38:21.202Z,95964.13
2023-02-14T22:40:47.457Z,95963.22
2023-02-14T22:43:13.749Z,95958.81
2023-02-14T22:45:40.160Z,95958.00
2023-02-14T22:48:06.410Z,95950.25
2023-02-14T22:50:32.681Z,95952.88
2023-02-14T22:52:58.944Z,95961.34
2023-02-14T22:55:25.207Z,95957.75
2023-02-14T22:57:51.495Z,95956.78
2023-02-14T23:00:17.765Z,95961.06
2023-02-14T23:02:44.081Z,95960.94
2023-02-14T23:05:10.392Z,95956.78
2023-02-14T23:07:36.771Z,95953.59
2023-02-14T23:10:03.036Z,95959.00
2023-02-14T23:12:29.291Z,95958.44
2023-02-14T23:14:55.539Z,95958.97
2023-02-14T23:17:21.839Z,95964.84
2023-02-14T23:19:48.098Z,95968.28
2023-02-14T23:22:14.357Z,95965.63
2023-02-14T23:24:40.623Z,95961.75
2023-02-14T23:27:06.879Z,95956.94
2023-02-14T23:29:33.137Z,95957.91
2023-02-14T23:31:59.442Z,95957.63
2023-02-14T23:34:25.704Z,95959.19
2023-02-14T23:36:51.972Z,95955.34
2023-02-14T23:39:18.255Z,95957.84
2023-02-14T23:41:44.537Z,95954.72
2023-02-14T23:44:10.787Z,95952.44
2023-02-14T23:46:37.038Z,95953.25
2023-02-14T23:49:03.307Z,95951.81
2023-02-14T23:51:29.567Z,95958.47
2023-02-14T23:53:55.845Z,95962.75
2023-02-14T23:56:22.129Z,95958.47
2023-02-14T23:58:48.390Z,95957.13
